Time;durP1;ratioP1;P1;durP2;ratioP2;P2;SDS_P1;SDS_P2;PMS_P1;PMS_P2;Temp;Humidity;BMP_temperature;BMP_pressure;BME280_temperature;BME280_humidity;BME280_pressure;Samples;Min_cycle;Max_cycle;Signal;HPM_P1;HPM_P2
2023/06/16 00:00:43;;;;;;;7.13;3.63;;;;;;;;;;12981840;19;20548;-62
2023/06/16 00:05:21;;;;;;;5.40;3.30;;;;;;;;;;12980438;19;20019;-62
2023/06/16 00:09:40;;;;;;;4.18;3.03;;;;;;;;;;12981467;19;20043;-63
2023/06/16 00:13:57;;;;;;;3.45;2.42;;;;;;;;;;12981218;19;20006;-63
2023/06/16 00:18:16;;;;;;;7.30;2.92;;;;;;;;;;12981469;19;20017;-63
2023/06/16 00:22:34;;;;;;;3.72;2.80;;;;;;;;;;12981389;19;20018;-63
2023/06/16 00:26:56;;;;;;;4.93;3.05;;;;;;;;;;12981571;19;20011;-63
2023/06/16 00:31:15;;;;;;;4.25;2.80;;;;;;;;;;12980171;19;20018;-63
2023/06/16 00:35:33;;;;;;;5.93;2.95;;;;;;;;;;12982500;19;20016;-63
2023/06/16 00:39:51;;;;;;;4.15;2.83;;;;;;;;;;12992673;19;20022;-62
2023/06/16 00:44:08;;;;;;;4.65;2.70;;;;;;;;;;12990888;19;20070;-62
2023/06/16 00:48:26;;;;;;;4.47;2.95;;;;;;;;;;12992281;19;20040;-62
2023/06/16 00:52:44;;;;;;;4.10;3.05;;;;;;;;;;12990366;19;20021;-62
2023/06/16 00:57:05;;;;;;;5.15;2.90;;;;;;;;;;12990757;19;20015;-62
2023/06/16 01:01:28;;;;;;;6.45;2.60;;;;;;;;;;12991006;19;20356;-62
2023/06/16 01:05:46;;;;;;;8.63;2.65;;;;;;;;;;12992287;19;20010;-61
2023/06/16 01:10:19;;;;;;;4.15;2.95;;;;;;;;;;12990434;19;20394;-62
2023/06/16 01:15:05;;;;;;;3.67;2.80;;;;;;;;;;12990104;19;20015;-62
2023/06/16 01:19:37;;;;;;;4.07;2.70;;;;;;;;;;12989463;19;20022;-62
2023/06/16 01:24:05;;;;;;;3.55;2.45;;;;;;;;;;12988782;19;20022;-61
2023/06/16 01:28:25;;;;;;;;;;;;;;;;;;12990307;19;20025;-62
2023/06/16 01:32:47;;;;;;;5.15;2.72;;;;;;;;;;12988234;19;19915;-62
2023/06/16 01:37:06;;;;;;;3.88;2.78;;;;;;;;;;12987063;19;20381;-62
2023/06/16 01:41:25;;;;;;;3.65;2.50;;;;;;;;;;12989418;19;20002;-62
2023/06/16 01:45:45;;;;;;;2.85;2.33;;;;;;;;;;12986797;19;20146;-62
2023/06/16 01:50:03;;;;;;;4.72;2.70;;;;;;;;;;12988499;19;20021;-62
2023/06/16 01:54:21;;;;;;;;;;;;;;;;;;12989492;19;20537;-63
2023/06/16 01:58:39;;;;;;;4.10;2.75;;;;;;;;;;12988589;19;19930;-63
2023/06/16 02:03:11;;;;;;;4.82;2.33;;;;;;;;;;12985693;19;20023;-62
2023/06/16 02:07:37;;;;;;;3.90;3.05;;;;;;;;;;12985652;19;20010;-62
2023/06/16 02:11:56;;;;;;;4.13;2.80;;;;;;;;;;12988797;19;20458;-63
2023/06/16 02:16:18;;;;;;;3.85;2.70;;;;;;;;;;12986748;19;20048;-62
2023/06/16 02:20:36;;;;;;;5.95;2.50;;;;;;;;;;12988514;19;20025;-62
2023/06/16 02:24:54;;;;;;;6.30;2.65;;;;;;;;;;12986924;19;20022;-62
2023/06/16 02:29:13;;;;;;;3.65;2.60;;;;;;;;;;12986137;19;20021;-62
2023/06/16 02:33:31;;;;;;;4.72;2.88;;;;;;;;;;12986921;19;20021;-62
2023/06/16 02:37:53;;;;;;;4.50;2.67;;;;;;;;;;12985740;19;20492;-62
2023/06/16 02:42:11;;;;;;;5.85;2.60;;;;;;;;;;12984130;19;20026;-62
2023/06/16 02:46:29;;;;;;;4.97;2.40;;;;;;;;;;12984672;19;20042;-62
2023/06/16 02:50:46;;;;;;;6.35;3.10;;;;;;;;;;12985554;19;20106;-62
2023/06/16 02:55:06;;;;;;;3.25;2.40;;;;;;;;;;12984866;19;20023;-62
2023/06/16 02:59:23;;;;;;;;;;;;;;;;;;12983678;19;20010;-62
2023/06/16 03:03:42;;;;;;;3.63;2.10;;;;;;;;;;12984570;19;19919;-62
2023/06/16 03:08:00;;;;;;;3.00;2.10;;;;;;;;;;12984761;19;20361;-62
2023/06/16 03:12:18;;;;;;;2.70;2.10;;;;;;;;;;12984710;19;20018;-63
2023/06/16 03:16:40;;;;;;;4.57;2.65;;;;;;;;;;12985062;19;20031;-62
2023/06/16 03:20:58;;;;;;;6.57;2.47;;;;;;;;;;12984277;19;20018;-62
2023/06/16 03:25:16;;;;;;;;;;;;;;;;;;12983842;19;20495;-62
2023/06/16 03:29:34;;;;;;;;;;;;;;;;;;12983845;19;19919;-62
2023/06/16 03:33:52;;;;;;;4.18;2.40;;;;;;;;;;12982714;19;20330;-62
2023/06/16 03:38:11;;;;;;;3.42;2.45;;;;;;;;;;12982286;19;20351;-62
2023/06/16 03:42:29;;;;;;;3.95;2.83;;;;;;;;;;12982020;19;20048;-62
2023/06/16 03:46:48;;;;;;;14.70;3.10;;;;;;;;;;12982584;19;20029;-62
2023/06/16 03:51:06;;;;;;;3.90;2.50;;;;;;;;;;12981661;19;20025;-63
2023/06/16 03:55:24;;;;;;;5.05;2.70;;;;;;;;;;12981707;19;20491;-61
2023/06/16 03:59:43;;;;;;;4.15;2.70;;;;;;;;;;12981972;19;20014;-62
2023/06/16 04:04:02;;;;;;;;;;;;;;;;;;12981913;19;20110;-63
2023/06/16 04:08:20;;;;;;;4.90;3.10;;;;;;;;;;12982005;19;19953;-62
2023/06/16 04:12:38;;;;;;;;;;;;;;;;;;12993822;19;20372;-62
2023/06/16 04:16:57;;;;;;;5.05;2.70;;;;;;;;;;12993452;19;19918;-62
2023/06/16 04:21:15;;;;;;;5.03;3.08;;;;;;;;;;12992717;19;20011;-62
2023/06/16 04:25:35;;;;;;;3.92;2.70;;;;;;;;;;12991681;19;20014;-62
2023/06/16 04:29:53;;;;;;;8.00;2.75;;;;;;;;;;12993057;19;20025;-62
2023/06/16 04:34:11;;;;;;;5.78;2.95;;;;;;;;;;12992028;19;20022;-62
2023/06/16 04:38:30;;;;;;;3.47;2.50;;;;;;;;;;12993305;19;20055;-62
2023/06/16 04:42:49;;;;;;;4.22;2.67;;;;;;;;;;12991417;19;20030;-62
2023/06/16 04:47:09;;;;;;;4.38;3.08;;;;;;;;;;12991375;19;20018;-62
2023/06/16 04:51:28;;;;;;;6.28;2.78;;;;;;;;;;12991678;19;20014;-62
2023/06/16 04:55:45;;;;;;;3.22;2.50;;;;;;;;;;12989962;19;20044;-62
2023/06/16 05:00:07;;;;;;;4.28;3.00;;;;;;;;;;12993632;19;20473;-62
2023/06/16 05:04:26;;;;;;;5.80;3.03;;;;;;;;;;12992289;19;20022;-62
2023/06/16 05:08:44;;;;;;;4.13;2.65;;;;;;;;;;12991906;19;20029;-63
2023/06/16 05:13:01;;;;;;;8.00;3.17;;;;;;;;;;12990947;19;20018;-63
2023/06/16 05:17:21;;;;;;;5.40;3.60;;;;;;;;;;12990244;19;22161;-62
2023/06/16 05:21:39;;;;;;;5.95;3.60;;;;;;;;;;12989628;19;20296;-63
2023/06/16 05:25:57;;;;;;;5.60;2.97;;;;;;;;;;12989396;19;20013;-63
2023/06/16 05:30:16;;;;;;;5.28;3.42;;;;;;;;;;12990112;19;20018;-63
2023/06/16 05:34:35;;;;;;;6.32;3.70;;;;;;;;;;12990373;19;20006;-62
2023/06/16 05:38:53;;;;;;;3.75;2.55;;;;;;;;;;12990361;19;20014;-62
2023/06/16 05:43:11;;;;;;;3.72;2.95;;;;;;;;;;12988718;19;20470;-62
2023/06/16 05:47:29;;;;;;;5.63;3.38;;;;;;;;;;12989983;19;20028;-62
2023/06/16 05:51:47;;;;;;;4.00;2.90;;;;;;;;;;12989786;19;20474;-62
2023/06/16 05:56:06;;;;;;;4.93;3.67;;;;;;;;;;12988947;19;20021;-62
2023/06/16 06:00:24;;;;;;;7.43;4.30;;;;;;;;;;12989207;19;20323;-62
2023/06/16 06:04:42;;;;;;;3.80;2.63;;;;;;;;;;12988939;19;20476;-62
2023/06/16 06:09:00;;;;;;;5.30;2.92;;;;;;;;;;12988404;19;20022;-62
2023/06/16 06:13:18;;;;;;;;;;;;;;;;;;12988872;19;20044;-63
2023/06/16 06:17:35;;;;;;;3.28;2.35;;;;;;;;;;12988218;19;20290;-63
2023/06/16 06:21:53;;;;;;;3.97;2.58;;;;;;;;;;12988036;19;20018;-63
2023/06/16 06:26:13;;;;;;;3.78;2.80;;;;;;;;;;12985692;19;20015;-62
2023/06/16 06:30:31;;;;;;;4.20;2.70;;;;;;;;;;12986608;19;20018;-63
2023/06/16 06:34:48;;;;;;;3.17;2.50;;;;;;;;;;12984323;19;20014;-63
2023/06/16 06:39:08;;;;;;;7.78;2.92;;;;;;;;;;12985830;19;20486;-62
2023/06/16 06:43:26;;;;;;;3.55;2.60;;;;;;;;;;12985847;19;20461;-63
2023/06/16 06:47:44;;;;;;;4.82;2.75;;;;;;;;;;12987618;19;20011;-63
2023/06/16 06:52:03;;;;;;;4.00;2.30;;;;;;;;;;12985946;19;20018;-62
2023/06/16 06:56:22;;;;;;;5.18;2.78;;;;;;;;;;12985663;19;20314;-63
2023/06/16 07:00:40;;;;;;;6.82;3.30;;;;;;;;;;12983326;19;20023;-62
2023/06/16 07:04:58;;;;;;;3.88;2.72;;;;;;;;;;12984795;19;20463;-62
2023/06/16 07:09:17;;;;;;;4.10;2.83;;;;;;;;;;12984724;19;20014;-62
2023/06/16 07:13:47;;;;;;;5.10;3.47;;;;;;;;;;12985100;19;20010;-63
2023/06/16 07:18:05;;;;;;;;;;;;;;;;;;12984943;19;20014;-63
2023/06/16 07:22:23;;;;;;;6.00;3.30;;;;;;;;;;12985595;19;19919;-63
2023/06/16 07:26:42;;;;;;;8.07;3.55;;;;;;;;;;12984386;19;20023;-63
2023/06/16 07:31:00;;;;;;;6.30;3.67;;;;;;;;;;12984908;19;20045;-62
2023/06/16 07:35:19;;;;;;;6.40;3.90;;;;;;;;;;12984804;19;20021;-63
2023/06/16 07:39:38;;;;;;;4.18;3.03;;;;;;;;;;12985463;19;20010;-63
2023/06/16 07:43:55;;;;;;;6.87;3.33;;;;;;;;;;12980048;19;20029;-62
2023/06/16 07:48:14;;;;;;;4.28;3.10;;;;;;;;;;12980629;19;20473;-63
2023/06/16 07:52:34;;;;;;;4.30;3.08;;;;;;;;;;12983102;19;20021;-62
2023/06/16 07:56:53;;;;;;;7.85;2.67;;;;;;;;;;12981788;19;20019;-62
2023/06/16 08:01:11;;;;;;;9.23;3.38;;;;;;;;;;12980757;19;20011;-63
2023/06/16 08:05:30;;;;;;;7.97;4.32;;;;;;;;;;12980723;19;20011;-63
2023/06/16 08:09:48;;;;;;;4.05;2.67;;;;;;;;;;12981005;19;20014;-63
2023/06/16 08:14:07;;;;;;;5.25;2.67;;;;;;;;;;12980419;19;20022;-63
2023/06/16 08:18:25;;;;;;;3.33;2.55;;;;;;;;;;12981522;19;20451;-62
2023/06/16 08:22:44;;;;;;;7.65;2.67;;;;;;;;;;12981051;19;20019;-62
2023/06/16 08:27:04;;;;;;;4.63;2.72;;;;;;;;;;12979741;19;20018;-62
2023/06/16 08:31:22;;;;;;;4.05;2.63;;;;;;;;;;12981206;19;20038;-63
2023/06/16 08:35:41;;;;;;;6.47;3.38;;;;;;;;;;12980652;19;20031;-63
2023/06/16 08:39:59;;;;;;;8.50;4.38;;;;;;;;;;12980466;19;20401;-62
2023/06/16 08:44:19;;;;;;;7.22;3.67;;;;;;;;;;12978134;19;20010;-62
2023/06/16 08:48:38;;;;;;;4.53;3.25;;;;;;;;;;12978430;19;20054;-62
2023/06/16 08:52:57;;;;;;;;;;;;;;;;;;12979904;19;20014;-62
2023/06/16 08:57:17;;;;;;;6.13;3.67;;;;;;;;;;12983160;19;20349;-62
2023/06/16 09:01:39;;;;;;;4.97;3.55;;;;;;;;;;12989713;19;20030;-62
2023/06/16 09:06:02;;;;;;;4.80;3.95;;;;;;;;;;12989105;19;20025;-62
2023/06/16 09:10:20;;;;;;;6.93;4.63;;;;;;;;;;12991281;19;20011;-62
2023/06/16 09:14:41;;;;;;;7.95;5.85;;;;;;;;;;12991715;19;20018;-62
2023/06/16 09:19:09;;;;;;;6.03;4.03;;;;;;;;;;12991137;19;20014;-62
2023/06/16 09:23:28;;;;;;;5.35;3.10;;;;;;;;;;12991302;19;20018;-62
2023/06/16 09:27:50;;;;;;;3.85;2.70;;;;;;;;;;12990263;19;20365;-62
2023/06/16 09:32:09;;;;;;;6.78;3.10;;;;;;;;;;12989801;19;20018;-62
2023/06/16 09:36:28;;;;;;;6.95;2.75;;;;;;;;;;12990046;19;20021;-62
2023/06/16 09:40:45;;;;;;;5.93;2.80;;;;;;;;;;12990052;19;20026;-62
2023/06/16 09:45:14;;;;;;;4.20;2.97;;;;;;;;;;12986150;19;20011;-62
2023/06/16 09:49:32;;;;;;;4.90;2.83;;;;;;;;;;12989183;19;20015;-61
2023/06/16 09:53:51;;;;;;;4.22;3.00;;;;;;;;;;12989065;19;20575;-62
2023/06/16 09:58:10;;;;;;;3.35;2.58;;;;;;;;;;12987726;19;20014;-61
2023/06/16 10:02:29;;;;;;;3.22;2.35;;;;;;;;;;12988349;19;20010;-62
2023/06/16 10:06:55;;;;;;;4.40;3.30;;;;;;;;;;12985492;19;20010;-61
2023/06/16 10:11:16;;;;;;;8.93;2.45;;;;;;;;;;12986904;19;20038;-62
2023/06/16 10:15:40;;;;;;;5.10;2.70;;;;;;;;;;12988382;19;20015;-62
2023/06/16 10:19:58;;;;;;;6.15;3.70;;;;;;;;;;12988045;19;20361;-62
2023/06/16 10:24:16;;;;;;;6.13;3.80;;;;;;;;;;12984790;19;20015;-62
2023/06/16 10:28:36;;;;;;;6.93;4.35;;;;;;;;;;12985059;19;20473;-62
2023/06/16 10:32:56;;;;;;;9.25;2.95;;;;;;;;;;12985023;19;20026;-62
2023/06/16 10:37:15;;;;;;;4.93;2.83;;;;;;;;;;12984169;19;20014;-62
2023/06/16 10:41:34;;;;;;;6.75;3.20;;;;;;;;;;12986402;19;20529;-62
2023/06/16 10:46:29;;;;;;;4.85;3.33;;;;;;;;;;12985720;19;20060;-62
2023/06/16 10:50:59;;;;;;;4.82;3.08;;;;;;;;;;12980212;19;20506;-61
2023/06/16 10:55:33;;;;;;;5.75;3.15;;;;;;;;;;12985660;19;20022;-62
2023/06/16 10:59:55;;;;;;;3.47;2.65;;;;;;;;;;12985477;19;20014;-62
2023/06/16 11:04:16;;;;;;;3.67;2.83;;;;;;;;;;12985141;19;20014;-61
2023/06/16 11:08:53;;;;;;;4.07;2.58;;;;;;;;;;12985440;19;20021;-62
2023/06/16 11:13:14;;;;;;;4.35;2.97;;;;;;;;;;12984969;19;20021;-61
2023/06/16 11:17:32;;;;;;;6.28;3.10;;;;;;;;;;12985152;19;20037;-62
2023/06/16 11:21:50;;;;;;;6.10;2.92;;;;;;;;;;12981749;19;20026;-62
2023/06/16 11:26:14;;;;;;;5.13;3.20;;;;;;;;;;12982685;19;20034;-62
2023/06/16 11:30:36;;;;;;;4.20;2.88;;;;;;;;;;12982284;19;20015;-62
2023/06/16 11:34:58;;;;;;;6.20;4.10;;;;;;;;;;12984029;19;20445;-61
2023/06/16 11:39:17;;;;;;;5.40;3.50;;;;;;;;;;12982390;19;20024;-62
2023/06/16 11:43:35;;;;;;;;;;;;;;;;;;12982722;19;20042;-61
2023/06/16 11:47:58;;;;;;;4.70;2.75;;;;;;;;;;12981926;19;19929;-62
2023/06/16 11:52:18;;;;;;;5.05;2.97;;;;;;;;;;12982535;19;20034;-61
2023/06/16 11:56:35;;;;;;;4.22;2.90;;;;;;;;;;12982251;19;20010;-62
2023/06/16 12:00:59;;;;;;;6.90;3.95;;;;;;;;;;12981507;19;20014;-61
2023/06/16 12:05:21;;;;;;;3.63;3.15;;;;;;;;;;12979787;19;20010;-62
2023/06/16 12:09:40;;;;;;;6.22;3.85;;;;;;;;;;12980790;19;20015;-62
2023/06/16 12:14:00;;;;;;;5.85;3.00;;;;;;;;;;12981714;19;20021;-61
2023/06/16 12:18:17;;;;;;;6.47;3.60;;;;;;;;;;12981237;19;20021;-62
2023/06/16 12:22:39;;;;;;;4.15;3.22;;;;;;;;;;12981458;19;20014;-62
2023/06/16 12:26:57;;;;;;;6.30;3.47;;;;;;;;;;12980179;19;20022;-62
2023/06/16 12:31:15;;;;;;;4.07;3.10;;;;;;;;;;12981289;19;20038;-62
2023/06/16 12:35:35;;;;;;;4.20;2.83;;;;;;;;;;12992863;19;20112;-61
2023/06/16 12:40:04;;;;;;;6.53;3.65;;;;;;;;;;12992768;19;20025;-62
2023/06/16 12:44:21;;;;;;;7.75;3.50;;;;;;;;;;12991891;19;20034;-62
2023/06/16 12:48:40;;;;;;;3.42;3.13;;;;;;;;;;12993112;19;20018;-61
2023/06/16 12:52:58;;;;;;;4.78;3.55;;;;;;;;;;12993147;19;20578;-61
2023/06/16 12:57:17;;;;;;;5.18;3.67;;;;;;;;;;12992648;19;20014;-62
2023/06/16 13:01:34;;;;;;;5.60;3.70;;;;;;;;;;12992672;19;20022;-61
2023/06/16 13:05:53;;;;;;;3.28;2.63;;;;;;;;;;12991651;19;20021;-61
2023/06/16 13:10:11;;;;;;;5.40;3.10;;;;;;;;;;12991301;19;20014;-61
2023/06/16 13:14:29;;;;;;;4.93;3.95;;;;;;;;;;12990520;19;20030;-61
2023/06/16 13:18:47;;;;;;;3.92;2.80;;;;;;;;;;12990685;19;20346;-62
2023/06/16 13:23:06;;;;;;;3.78;3.05;;;;;;;;;;12990023;19;20484;-63
2023/06/16 13:27:24;;;;;;;5.03;3.00;;;;;;;;;;12990324;19;20018;-61
2023/06/16 13:31:42;;;;;;;5.40;3.20;;;;;;;;;;12989603;19;20346;-62
2023/06/16 13:36:00;;;;;;;4.18;2.78;;;;;;;;;;12990696;19;20484;-61
2023/06/16 13:40:19;;;;;;;6.18;3.95;;;;;;;;;;12989665;19;20014;-62
2023/06/16 13:44:39;;;;;;;4.65;3.45;;;;;;;;;;12988168;19;20110;-62
2023/06/16 13:48:56;;;;;;;4.43;3.17;;;;;;;;;;12990289;19;20019;-62
2023/06/16 13:53:15;;;;;;;6.70;3.05;;;;;;;;;;12989067;19;20025;-62
2023/06/16 13:57:33;;;;;;;;;;;;;;;;;;12989921;19;20482;-61
2023/06/16 14:01:50;;;;;;;4.22;2.95;;;;;;;;;;12988146;19;19923;-62
2023/06/16 14:06:08;;;;;;;11.50;2.70;;;;;;;;;;12987071;19;20011;-61
2023/06/16 14:10:28;;;;;;;5.60;3.33;;;;;;;;;;12988090;19;20011;-61
2023/06/16 14:14:45;;;;;;;3.45;2.88;;;;;;;;;;12987590;19;20276;-61
2023/06/16 14:19:03;;;;;;;4.63;2.50;;;;;;;;;;12986848;19;20011;-62
2023/06/16 14:23:21;;;;;;;9.35;3.00;;;;;;;;;;12987452;19;20042;-62
2023/06/16 14:27:39;;;;;;;4.93;2.58;;;;;;;;;;12987874;19;20032;-62
2023/06/16 14:31:57;;;;;;;;;;;;;;;;;;12988368;19;20025;-61
2023/06/16 14:36:16;;;;;;;5.20;3.20;;;;;;;;;;12987079;19;19915;-61
2023/06/16 14:40:35;;;;;;;;;;;;;;;;;;12987046;19;20037;-62
2023/06/16 14:44:53;;;;;;;4.45;2.97;;;;;;;;;;12985402;19;19929;-61
2023/06/16 14:49:12;;;;;;;5.10;2.55;;;;;;;;;;12984826;19;20029;-61
2023/06/16 14:53:29;;;;;;;5.82;2.70;;;;;;;;;;12984859;19;20703;-61
2023/06/16 14:57:50;;;;;;;4.75;2.75;;;;;;;;;;12984108;19;20022;-62
2023/06/16 15:02:08;;;;;;;3.17;2.53;;;;;;;;;;12984316;19;20014;-62
2023/06/16 15:06:26;;;;;;;;;;;;;;;;;;12985450;19;20014;-61
2023/06/16 15:10:44;;;;;;;3.38;2.40;;;;;;;;;;12984862;19;19955;-62
2023/06/16 15:15:03;;;;;;;3.17;2.25;;;;;;;;;;12984161;19;20022;-61
2023/06/16 15:19:23;;;;;;;4.82;2.72;;;;;;;;;;12983802;19;20101;-62
2023/06/16 15:23:41;;;;;;;5.10;2.75;;;;;;;;;;12984882;19;20029;-62
2023/06/16 15:27:59;;;;;;;4.03;2.78;;;;;;;;;;12984395;19;20300;-62
2023/06/16 15:32:29;;;;;;;3.05;2.40;;;;;;;;;;12983896;19;20018;-62
2023/06/16 15:36:46;;;;;;;3.35;2.58;;;;;;;;;;12981858;19;20014;-62
2023/06/16 15:41:05;;;;;;;3.60;2.35;;;;;;;;;;12980312;19;20514;-62
2023/06/16 15:45:23;;;;;;;4.53;2.50;;;;;;;;;;12982458;19;20485;-62
2023/06/16 15:49:41;;;;;;;;;;;;;;;;;;12983415;19;20021;-61
2023/06/16 15:53:59;;;;;;;4.70;2.67;;;;;;;;;;12982906;19;19942;-61
2023/06/16 15:58:18;;;;;;;3.63;2.47;;;;;;;;;;12981708;19;20018;-61
2023/06/16 16:02:36;;;;;;;2.85;2.53;;;;;;;;;;12981445;19;20367;-61
2023/06/16 16:06:55;;;;;;;4.07;2.90;;;;;;;;;;12987340;19;20010;-61
2023/06/16 16:11:14;;;;;;;5.22;2.47;;;;;;;;;;12994087;19;20442;-61
2023/06/16 16:15:32;;;;;;;;;;;;;;;;;;12995846;19;20014;-61
2023/06/16 16:19:50;;;;;;;3.83;2.55;;;;;;;;;;12994180;19;19930;-61
2023/06/16 16:24:09;;;;;;;3.58;2.67;;;;;;;;;;12993834;19;20022;-61
2023/06/16 16:28:27;;;;;;;3.95;2.80;;;;;;;;;;12992786;19;20006;-62
2023/06/16 16:32:46;;;;;;;4.38;2.22;;;;;;;;;;12992838;19;20478;-61
2023/06/16 16:37:06;;;;;;;4.05;2.63;;;;;;;;;;12992484;19;20014;-61
2023/06/16 16:41:24;;;;;;;3.08;2.60;;;;;;;;;;12992977;19;20022;-61
2023/06/16 16:45:41;;;;;;;4.00;2.42;;;;;;;;;;12991183;19;20044;-61
2023/06/16 16:49:59;;;;;;;8.38;3.38;;;;;;;;;;12992927;19;20488;-61
2023/06/16 16:54:20;;;;;;;3.92;2.53;;;;;;;;;;12992535;19;20011;-61
2023/06/16 16:58:39;;;;;;;4.68;2.85;;;;;;;;;;12992163;19;20010;-61
2023/06/16 17:02:57;;;;;;;8.00;2.50;;;;;;;;;;12991704;19;20014;-62
2023/06/16 17:07:15;;;;;;;;;;;;;;;;;;12991003;19;20018;-61
2023/06/16 17:11:34;;;;;;;3.38;2.75;;;;;;;;;;12991890;19;19930;-62
2023/06/16 17:15:51;;;;;;;;;;;;;;;;;;12992095;19;20011;-61
2023/06/16 17:20:10;;;;;;;3.40;2.67;;;;;;;;;;12989102;19;19919;-61
2023/06/16 17:24:28;;;;;;;3.60;2.72;;;;;;;;;;12991048;19;20014;-62
2023/06/16 17:28:47;;;;;;;4.18;2.75;;;;;;;;;;12990239;19;20339;-61
2023/06/16 17:33:05;;;;;;;5.50;3.15;;;;;;;;;;12989236;19;20029;-62
2023/06/16 17:37:23;;;;;;;2.45;2.25;;;;;;;;;;12989897;19;20484;-62
2023/06/16 17:41:42;;;;;;;4.30;3.00;;;;;;;;;;12989422;19;20019;-62
2023/06/16 17:46:00;;;;;;;4.18;3.28;;;;;;;;;;12987971;19;20388;-62
2023/06/16 17:50:19;;;;;;;4.47;3.33;;;;;;;;;;12988641;19;20019;-61
2023/06/16 17:54:39;;;;;;;7.05;4.00;;;;;;;;;;12989491;19;20014;-61
2023/06/16 17:59:00;;;;;;;3.97;3.13;;;;;;;;;;12989100;19;20021;-62
2023/06/16 18:03:19;;;;;;;4.93;3.60;;;;;;;;;;12988692;19;20584;-61
2023/06/16 18:07:37;;;;;;;6.13;3.13;;;;;;;;;;12988082;19;20027;-61
2023/06/16 18:11:56;;;;;;;4.13;3.50;;;;;;;;;;12987528;19;20014;-61
2023/06/16 18:16:14;;;;;;;4.53;3.22;;;;;;;;;;12987401;19;20383;-61
2023/06/16 18:20:33;;;;;;;7.10;3.72;;;;;;;;;;12987820;19;20014;-61
2023/06/16 18:24:51;;;;;;;7.80;4.85;;;;;;;;;;12987469;19;20458;-61
2023/06/16 18:29:09;;;;;;;9.73;5.07;;;;;;;;;;12985005;19;20019;-61
2023/06/16 18:33:28;;;;;;;6.78;4.15;;;;;;;;;;12987105;19;20010;-61
2023/06/16 18:37:47;;;;;;;10.52;6.30;;;;;;;;;;12987162;19;20015;-61
2023/06/16 18:42:07;;;;;;;15.30;8.70;;;;;;;;;;12985235;19;20018;-61
2023/06/16 18:46:25;;;;;;;25.63;12.50;;;;;;;;;;12986631;19;20018;-61
2023/06/16 18:50:43;;;;;;;15.65;9.68;;;;;;;;;;12987080;19;20039;-61
2023/06/16 18:55:00;;;;;;;32.05;18.08;;;;;;;;;;12985962;19;20018;-61
2023/06/16 18:59:19;;;;;;;31.13;15.93;;;;;;;;;;12985356;19;20021;-61
2023/06/16 19:03:38;;;;;;;16.33;9.65;;;;;;;;;;12985313;19;20477;-61
2023/06/16 19:07:56;;;;;;;20.33;10.75;;;;;;;;;;12985216;19;20018;-61
2023/06/16 19:12:14;;;;;;;11.00;6.95;;;;;;;;;;12984279;19;20420;-61
2023/06/16 19:16:32;;;;;;;16.08;8.35;;;;;;;;;;12984080;19;20019;-60
2023/06/16 19:20:50;;;;;;;10.98;6.40;;;;;;;;;;12984920;19;20018;-60
2023/06/16 19:25:11;;;;;;;7.93;4.88;;;;;;;;;;12983765;19;20296;-61
2023/06/16 19:29:29;;;;;;;7.63;4.95;;;;;;;;;;12984044;19;20014;-61
2023/06/16 19:33:48;;;;;;;7.68;4.38;;;;;;;;;;12983444;19;20580;-61
2023/06/16 19:38:06;;;;;;;9.73;5.88;;;;;;;;;;12982514;19;20011;-61
2023/06/16 19:42:25;;;;;;;18.55;7.20;;;;;;;;;;12981736;19;20038;-61
2023/06/16 19:46:46;;;;;;;10.68;6.57;;;;;;;;;;12982958;19;20019;-61
2023/06/16 19:51:03;;;;;;;8.55;5.97;;;;;;;;;;12981037;19;20018;-63
2023/06/16 19:55:21;;;;;;;9.80;5.63;;;;;;;;;;12982770;19;20019;-61
2023/06/16 19:59:43;;;;;;;8.60;5.07;;;;;;;;;;12982232;19;20014;-61
2023/06/16 20:04:00;;;;;;;10.00;5.55;;;;;;;;;;12981941;19;20375;-61
2023/06/16 20:08:19;;;;;;;9.98;6.45;;;;;;;;;;12980968;19;20503;-61
2023/06/16 20:12:36;;;;;;;;;;;;;;;;;;12982263;19;20010;-61
2023/06/16 20:16:56;;;;;;;7.90;5.10;;;;;;;;;;12980976;19;20260;-61
2023/06/16 20:21:14;;;;;;;5.55;4.13;;;;;;;;;;12981065;19;20606;-60
2023/06/16 20:25:32;;;;;;;7.47;4.93;;;;;;;;;;12981548;19;20398;-61
2023/06/16 20:29:51;;;;;;;8.27;5.40;;;;;;;;;;12980692;19;20018;-60
2023/06/16 20:34:10;;;;;;;6.43;4.50;;;;;;;;;;12979518;19;20011;-61
2023/06/16 20:38:29;;;;;;;11.18;5.18;;;;;;;;;;12980193;19;20842;-61
2023/06/16 20:42:47;;;;;;;5.82;4.90;;;;;;;;;;12979203;19;20010;-61
2023/06/16 20:47:07;;;;;;;7.80;5.10;;;;;;;;;;12978333;19;20027;-61
2023/06/16 20:51:28;;;;;;;6.32;4.95;;;;;;;;;;12979408;19;20014;-61
2023/06/16 20:55:46;;;;;;;12.52;5.15;;;;;;;;;;12991040;19;20007;-60
2023/06/16 21:00:06;;;;;;;13.07;6.32;;;;;;;;;;12991517;19;20283;-63
2023/06/16 21:04:25;;;;;;;7.95;5.38;;;;;;;;;;12992204;19;20033;-61
2023/06/16 21:08:42;;;;;;;5.75;4.50;;;;;;;;;;12991216;19;20018;-61
2023/06/16 21:13:00;;;;;;;7.78;5.68;;;;;;;;;;12991817;19;20118;-60
2023/06/16 21:17:18;;;;;;;9.40;5.45;;;;;;;;;;12990804;19;20018;-61
2023/06/16 21:21:37;;;;;;;7.65;5.38;;;;;;;;;;12990677;19;20007;-61
2023/06/16 21:25:56;;;;;;;6.93;5.40;;;;;;;;;;12990544;19;20010;-60
2023/06/16 21:30:14;;;;;;;8.85;5.45;;;;;;;;;;12989250;19;20014;-60
2023/06/16 21:34:32;;;;;;;10.43;5.43;;;;;;;;;;12989853;19;20513;-61
2023/06/16 21:38:55;;;;;;;8.23;4.95;;;;;;;;;;12989425;19;20469;-62
2023/06/16 21:43:13;;;;;;;8.70;4.88;;;;;;;;;;12988502;19;20014;-62
2023/06/16 21:47:31;;;;;;;9.60;4.88;;;;;;;;;;12988505;19;20470;-62
2023/06/16 21:51:48;;;;;;;7.55;5.18;;;;;;;;;;12989433;19;20485;-62
2023/06/16 21:56:08;;;;;;;7.10;5.07;;;;;;;;;;12987147;19;20560;-63
2023/06/16 22:00:25;;;;;;;9.15;4.90;;;;;;;;;;12988968;19;20018;-62
2023/06/16 22:04:43;;;;;;;;;;;;;;;;;;12987761;19;20036;-62
2023/06/16 22:09:04;;;;;;;12.40;5.97;;;;;;;;;;12986060;19;19922;-63
2023/06/16 22:13:22;;;;;;;7.40;5.88;;;;;;;;;;12988268;19;20019;-62
2023/06/16 22:17:40;;;;;;;7.88;5.30;;;;;;;;;;12986648;19;20022;-62
2023/06/16 22:22:00;;;;;;;9.38;5.93;;;;;;;;;;12984474;19;20011;-62
2023/06/16 22:26:20;;;;;;;6.75;5.10;;;;;;;;;;12973842;19;20023;-62
2023/06/16 22:30:38;;;;;;;7.82;5.15;;;;;;;;;;12986600;19;20014;-61
2023/06/16 22:34:56;;;;;;;7.50;5.63;;;;;;;;;;12986842;19;20406;-62
2023/06/16 22:39:14;;;;;;;6.60;5.15;;;;;;;;;;12986369;19;20372;-61
2023/06/16 22:43:32;;;;;;;6.85;4.97;;;;;;;;;;12985615;19;20018;-61
2023/06/16 22:47:51;;;;;;;8.18;5.38;;;;;;;;;;12985223;19;20039;-61
2023/06/16 22:52:09;;;;;;;8.48;5.13;;;;;;;;;;12985061;19;20010;-62
2023/06/16 22:56:28;;;;;;;6.55;4.85;;;;;;;;;;12985382;19;20011;-61
2023/06/16 23:00:45;;;;;;;8.20;4.75;;;;;;;;;;12985409;19;20017;-61
2023/06/16 23:05:04;;;;;;;10.75;5.28;;;;;;;;;;12984478;19;20007;-62
2023/06/16 23:09:22;;;;;;;6.55;4.85;;;;;;;;;;12984659;19;20015;-62
2023/06/16 23:13:40;;;;;;;5.10;4.47;;;;;;;;;;12984855;19;20025;-62
2023/06/16 23:17:58;;;;;;;8.07;5.43;;;;;;;;;;12982845;19;20046;-62
2023/06/16 23:22:17;;;;;;;5.72;4.75;;;;;;;;;;12983363;19;20018;-61
2023/06/16 23:26:35;;;;;;;6.72;4.93;;;;;;;;;;12984303;19;20050;-62
2023/06/16 23:30:53;;;;;;;7.78;5.70;;;;;;;;;;12983849;19;20014;-61
2023/06/16 23:35:10;;;;;;;9.52;5.63;;;;;;;;;;12982484;19;20010;-62
2023/06/16 23:39:30;;;;;;;6.97;5.25;;;;;;;;;;12983198;19;20022;-62
2023/06/16 23:43:47;;;;;;;6.32;4.88;;;;;;;;;;12982627;19;20011;-62
2023/06/16 23:48:09;;;;;;;5.70;4.47;;;;;;;;;;12981629;19;20018;-63
2023/06/16 23:52:28;;;;;;;7.65;5.28;;;;;;;;;;12982594;19;20359;-61
2023/06/16 23:56:46;;;;;;;;;;;;;;;;;;12983043;19;20014;-61
